# Tabular Observed and Forecast Hydrograph Information
#
# Location: Feather River - Gridley (GRIC1)
#
# File Generation Time: 05/10/2026 at 07:31 AM PDT
# Data Interval: 1 Hour
#
# Most Recent Date & Time of Maximum Observed: 05/05/2026 at 02:00 PM PDT
# Maximum Observed Stage: 71.80 Feet
# Maximum Observed Flow: 1034 cfs
#
# Earliest Date & Time of Maximum Forecast: 05/14/2026 at 05:00 PM PDT
# Maximum Forecast Stage: 71.73 Feet
# Maximum Forecast Flow: 974 cfs
#
# OBSERVED
#
# Date & Time (Local) Stage (Feet) Flow (cfs) Trend Observed Status
# ---------------------------------------------------------------------------------
05/05/2026 07 AM PDT 71.79 1025 Normal
05/05/2026 08 AM PDT 71.78 1016 - Normal
05/05/2026 09 AM PDT 71.79 1025 + Normal
05/05/2026 10 AM PDT 71.78 1016 - Normal
05/05/2026 11 AM PDT 71.78 1016 0 Normal
05/05/2026 12 PM PDT 71.78 1016 0 Normal
05/05/2026 01 PM PDT 71.80 1034 + Normal
05/05/2026 02 PM PDT 71.80 1034 0 Normal
05/05/2026 03 PM PDT 71.79 1025 - Normal
05/05/2026 04 PM PDT 71.77 1008 - Normal
05/05/2026 05 PM PDT 71.75 991 - Normal
05/05/2026 06 PM PDT 71.72 965 - Normal
05/05/2026 07 PM PDT 71.72 965 0 Normal
05/05/2026 08 PM PDT 71.73 974 + Normal
05/05/2026 09 PM PDT 71.72 965 - Normal
05/05/2026 10 PM PDT 71.73 974 + Normal
05/05/2026 11 PM PDT 71.73 974 0 Normal
05/06/2026 12 AM PDT 71.74 982 + Normal
05/06/2026 01 AM PDT 71.73 974 - Normal
05/06/2026 02 AM PDT 71.73 974 0 Normal
05/06/2026 03 AM PDT 71.73 974 0 Normal
05/06/2026 04 AM PDT 71.73 974 0 Normal
05/06/2026 05 AM PDT 71.73 974 0 Normal
05/06/2026 06 AM PDT 71.74 982 + Normal
05/06/2026 07 AM PDT 71.74 982 0 Normal
05/06/2026 08 AM PDT 71.73 974 - Normal
05/06/2026 09 AM PDT 71.74 982 + Normal
05/06/2026 10 AM PDT 71.74 982 0 Normal
05/06/2026 11 AM PDT 71.73 974 - Normal
05/06/2026 12 PM PDT 71.72 965 - Normal
05/06/2026 01 PM PDT 71.70 949 - Normal
05/06/2026 02 PM PDT 71.70 949 0 Normal
05/06/2026 03 PM PDT 71.71 957 + Normal
05/06/2026 04 PM PDT 71.71 957 0 Normal
05/06/2026 05 PM PDT 71.71 957 0 Normal
05/06/2026 06 PM PDT 71.72 965 + Normal
05/06/2026 07 PM PDT 71.73 974 + Normal
05/06/2026 08 PM PDT 71.73 974 0 Normal
05/06/2026 09 PM PDT 71.72 965 - Normal
05/06/2026 10 PM PDT 71.72 965 0 Normal
05/06/2026 11 PM PDT 71.72 965 0 Normal
05/07/2026 12 AM PDT 71.72 965 0 Normal
05/07/2026 01 AM PDT 71.72 965 0 Normal
05/07/2026 02 AM PDT 71.72 965 0 Normal
05/07/2026 03 AM PDT 71.73 974 + Normal
05/07/2026 04 AM PDT 71.73 974 0 Normal
05/07/2026 05 AM PDT 71.72 965 - Normal
05/07/2026 06 AM PDT 71.72 965 0 Normal
05/07/2026 07 AM PDT 71.71 957 - Normal
05/07/2026 08 AM PDT 71.70 949 - Normal
05/07/2026 09 AM PDT 71.70 949 0 Normal
05/07/2026 10 AM PDT 71.70 949 0 Normal
05/07/2026 11 AM PDT 71.69 940 - Normal
05/07/2026 12 PM PDT 71.69 940 0 Normal
05/07/2026 01 PM PDT 71.69 940 0 Normal
05/07/2026 02 PM PDT 71.69 940 0 Normal
05/07/2026 03 PM PDT 71.71 957 + Normal
05/07/2026 04 PM PDT 71.71 957 0 Normal
05/07/2026 05 PM PDT 71.72 965 + Normal
05/07/2026 06 PM PDT 71.72 965 0 Normal
05/07/2026 07 PM PDT 71.72 965 0 Normal
05/07/2026 08 PM PDT 71.71 957 - Normal
05/07/2026 09 PM PDT 71.72 965 + Normal
05/07/2026 10 PM PDT 71.71 957 - Normal
05/07/2026 11 PM PDT 71.72 965 + Normal
05/08/2026 12 AM PDT 71.71 957 - Normal
05/08/2026 01 AM PDT 71.71 957 0 Normal
05/08/2026 02 AM PDT 71.71 957 0 Normal
05/08/2026 03 AM PDT 71.71 957 0 Normal
05/08/2026 04 AM PDT 71.71 957 0 Normal
05/08/2026 05 AM PDT 71.72 965 + Normal
05/08/2026 06 AM PDT 71.72 965 0 Normal
05/08/2026 07 AM PDT 71.72 965 0 Normal
05/08/2026 08 AM PDT 71.72 965 0 Normal
05/08/2026 09 AM PDT 71.72 965 0 Normal
05/08/2026 10 AM PDT 71.71 957 - Normal
05/08/2026 11 AM PDT 71.72 965 + Normal
05/08/2026 12 PM PDT 71.72 965 0 Normal
05/08/2026 01 PM PDT 71.71 957 - Normal
05/08/2026 02 PM PDT 71.72 965 + Normal
05/08/2026 03 PM PDT 71.71 957 - Normal
05/08/2026 04 PM PDT 71.71 957 0 Normal
05/08/2026 05 PM PDT 71.70 949 - Normal
05/08/2026 06 PM PDT 71.69 940 - Normal
05/08/2026 07 PM PDT 71.69 940 0 Normal
05/08/2026 08 PM PDT 71.68 932 - Normal
05/08/2026 09 PM PDT 71.69 940 + Normal
05/08/2026 10 PM PDT 71.69 940 0 Normal
05/08/2026 11 PM PDT 71.70 949 + Normal
05/09/2026 12 AM PDT 71.71 957 + Normal
05/09/2026 01 AM PDT 71.71 957 0 Normal
05/09/2026 02 AM PDT 71.71 957 0 Normal
05/09/2026 03 AM PDT 71.72 965 + Normal
05/09/2026 04 AM PDT 71.71 957 - Normal
05/09/2026 05 AM PDT 71.72 965 + Normal
05/09/2026 06 AM PDT 71.70 949 - Normal
05/09/2026 07 AM PDT 71.70 949 0 Normal
05/09/2026 08 AM PDT 71.69 940 - Normal
05/09/2026 09 AM PDT 71.70 949 + Normal
05/09/2026 10 AM PDT 71.70 949 0 Normal
05/09/2026 11 AM PDT 71.70 949 0 Normal
05/09/2026 12 PM PDT 71.71 957 + Normal
05/09/2026 01 PM PDT 71.71 957 0 Normal
05/09/2026 02 PM PDT 71.71 957 0 Normal
05/09/2026 03 PM PDT 71.71 957 0 Normal
05/09/2026 04 PM PDT 71.72 965 + Normal
05/09/2026 05 PM PDT 71.71 957 - Normal
05/09/2026 06 PM PDT 71.72 965 + Normal
05/09/2026 07 PM PDT 71.71 957 - Normal
05/09/2026 08 PM PDT 71.72 965 + Normal
05/09/2026 09 PM PDT 71.71 957 - Normal
05/09/2026 10 PM PDT 71.72 965 + Normal
05/09/2026 11 PM PDT 71.71 957 - Normal
05/10/2026 12 AM PDT 71.71 957 0 Normal
05/10/2026 01 AM PDT 71.71 957 0 Normal
05/10/2026 02 AM PDT 71.71 957 0 Normal
05/10/2026 03 AM PDT 71.71 957 0 Normal
05/10/2026 04 AM PDT 71.71 957 0 Normal
05/10/2026 05 AM PDT 71.72 965 + Normal
05/10/2026 06 AM PDT 71.72 965 0 Normal
#
# FORECAST
#
# Date & Time (Local) Stage (Feet) Flow (cfs) Trend Forecast Status
# ---------------------------------------------------------------------------------
05/10/2026 07 AM PDT 71.72 965 Normal
05/10/2026 08 AM PDT 71.72 965 0 Normal
05/10/2026 09 AM PDT 71.72 965 0 Normal
05/10/2026 10 AM PDT 71.72 965 0 Normal
05/10/2026 11 AM PDT 71.72 965 0 Normal
05/10/2026 12 PM PDT 71.72 965 0 Normal
05/10/2026 01 PM PDT 71.72 965 0 Normal
05/10/2026 02 PM PDT 71.72 965 0 Normal
05/10/2026 03 PM PDT 71.72 965 0 Normal
05/10/2026 04 PM PDT 71.72 965 0 Normal
05/10/2026 05 PM PDT 71.72 965 0 Normal
05/10/2026 06 PM PDT 71.72 965 0 Normal
05/10/2026 07 PM PDT 71.72 965 0 Normal
05/10/2026 08 PM PDT 71.72 965 0 Normal
05/10/2026 09 PM PDT 71.72 965 0 Normal
05/10/2026 10 PM PDT 71.72 965 0 Normal
05/10/2026 11 PM PDT 71.72 965 0 Normal
05/11/2026 12 AM PDT 71.72 965 0 Normal
05/11/2026 01 AM PDT 71.72 965 0 Normal
05/11/2026 02 AM PDT 71.72 965 0 Normal
05/11/2026 03 AM PDT 71.72 965 0 Normal
05/11/2026 04 AM PDT 71.72 965 0 Normal
05/11/2026 05 AM PDT 71.72 965 0 Normal
05/11/2026 06 AM PDT 71.72 965 0 Normal
05/11/2026 07 AM PDT 71.72 965 0 Normal
05/11/2026 08 AM PDT 71.72 965 0 Normal
05/11/2026 09 AM PDT 71.72 965 0 Normal
05/11/2026 10 AM PDT 71.72 965 0 Normal
05/11/2026 11 AM PDT 71.72 965 0 Normal
05/11/2026 12 PM PDT 71.72 965 0 Normal
05/11/2026 01 PM PDT 71.72 965 0 Normal
05/11/2026 02 PM PDT 71.72 965 0 Normal
05/11/2026 03 PM PDT 71.72 965 0 Normal
05/11/2026 04 PM PDT 71.72 965 0 Normal
05/11/2026 05 PM PDT 71.72 965 0 Normal
05/11/2026 06 PM PDT 71.72 965 0 Normal
05/11/2026 07 PM PDT 71.72 965 0 Normal
05/11/2026 08 PM PDT 71.72 965 0 Normal
05/11/2026 09 PM PDT 71.72 965 0 Normal
05/11/2026 10 PM PDT 71.72 965 0 Normal
05/11/2026 11 PM PDT 71.72 965 0 Normal
05/12/2026 12 AM PDT 71.72 965 0 Normal
05/12/2026 01 AM PDT 71.72 965 0 Normal
05/12/2026 02 AM PDT 71.72 965 0 Normal
05/12/2026 03 AM PDT 71.72 965 0 Normal
05/12/2026 04 AM PDT 71.72 965 0 Normal
05/12/2026 05 AM PDT 71.72 965 0 Normal
05/12/2026 06 AM PDT 71.72 965 0 Normal
05/12/2026 07 AM PDT 71.72 965 0 Normal
05/12/2026 08 AM PDT 71.72 965 0 Normal
05/12/2026 09 AM PDT 71.72 965 0 Normal
05/12/2026 10 AM PDT 71.72 965 0 Normal
05/12/2026 11 AM PDT 71.72 965 0 Normal
05/12/2026 12 PM PDT 71.72 965 0 Normal
05/12/2026 01 PM PDT 71.72 965 0 Normal
05/12/2026 02 PM PDT 71.72 965 0 Normal
05/12/2026 03 PM PDT 71.72 965 0 Normal
05/12/2026 04 PM PDT 71.72 965 0 Normal
05/12/2026 05 PM PDT 71.72 965 0 Normal
05/12/2026 06 PM PDT 71.72 965 0 Normal
05/12/2026 07 PM PDT 71.72 965 0 Normal
05/12/2026 08 PM PDT 71.72 965 0 Normal
05/12/2026 09 PM PDT 71.72 965 0 Normal
05/12/2026 10 PM PDT 71.72 965 0 Normal
05/12/2026 11 PM PDT 71.72 965 0 Normal
05/13/2026 12 AM PDT 71.72 965 0 Normal
05/13/2026 01 AM PDT 71.72 965 0 Normal
05/13/2026 02 AM PDT 71.72 965 0 Normal
05/13/2026 03 AM PDT 71.72 965 0 Normal
05/13/2026 04 AM PDT 71.72 965 0 Normal
05/13/2026 05 AM PDT 71.72 965 0 Normal
05/13/2026 06 AM PDT 71.72 965 0 Normal
05/13/2026 07 AM PDT 71.72 965 0 Normal
05/13/2026 08 AM PDT 71.72 965 0 Normal
05/13/2026 09 AM PDT 71.72 965 0 Normal
05/13/2026 10 AM PDT 71.72 965 0 Normal
05/13/2026 11 AM PDT 71.72 965 0 Normal
05/13/2026 12 PM PDT 71.72 965 0 Normal
05/13/2026 01 PM PDT 71.72 965 0 Normal
05/13/2026 02 PM PDT 71.72 965 0 Normal
05/13/2026 03 PM PDT 71.72 965 0 Normal
05/13/2026 04 PM PDT 71.72 965 0 Normal
05/13/2026 05 PM PDT 71.72 965 0 Normal
05/13/2026 06 PM PDT 71.72 965 0 Normal
05/13/2026 07 PM PDT 71.72 965 0 Normal
05/13/2026 08 PM PDT 71.72 965 0 Normal
05/13/2026 09 PM PDT 71.72 965 0 Normal
05/13/2026 10 PM PDT 71.72 965 0 Normal
05/13/2026 11 PM PDT 71.72 965 0 Normal
05/14/2026 12 AM PDT 71.72 965 0 Normal
05/14/2026 01 AM PDT 71.72 965 0 Normal
05/14/2026 02 AM PDT 71.72 965 0 Normal
05/14/2026 03 AM PDT 71.72 965 0 Normal
05/14/2026 04 AM PDT 71.72 965 0 Normal
05/14/2026 05 AM PDT 71.72 965 0 Normal
05/14/2026 06 AM PDT 71.72 965 0 Normal
05/14/2026 07 AM PDT 71.72 965 0 Normal
05/14/2026 08 AM PDT 71.72 965 0 Normal
05/14/2026 09 AM PDT 71.72 965 0 Normal
05/14/2026 10 AM PDT 71.72 965 0 Normal
05/14/2026 11 AM PDT 71.72 965 0 Normal
05/14/2026 12 PM PDT 71.72 965 0 Normal
05/14/2026 01 PM PDT 71.72 965 0 Normal
05/14/2026 02 PM PDT 71.72 965 0 Normal
05/14/2026 03 PM PDT 71.72 965 0 Normal
05/14/2026 04 PM PDT 71.72 965 0 Normal
05/14/2026 05 PM PDT 71.73 974 + Normal
05/14/2026 06 PM PDT 71.73 974 0 Normal
05/14/2026 07 PM PDT 71.73 974 0 Normal
05/14/2026 08 PM PDT 71.73 974 0 Normal
05/14/2026 09 PM PDT 71.73 974 0 Normal
05/14/2026 10 PM PDT 71.73 974 0 Normal
05/14/2026 11 PM PDT 71.73 974 0 Normal
05/15/2026 12 AM PDT 71.73 974 0 Normal
05/15/2026 01 AM PDT 71.73 974 0 Normal
05/15/2026 02 AM PDT 71.73 974 0 Normal
05/15/2026 03 AM PDT 71.73 974 0 Normal
05/15/2026 04 AM PDT 71.73 974 0 Normal
05/15/2026 05 AM PDT 71.73 974 0 Normal
#
# NOTE 1: Stages are rounded to the nearest hundredth (.01) of a foot.
# NOTE 2: Flows are rounded to the nearest (1) cfs.
# NOTE 3: Trends are determined using hourly change in unrounded stage and flow.
# NOTE 4: Maximum Values are determined using unrounded stage and flow.
|